• Join FlightAware (Why Join?)
  • Login
  • US Flag 
04:42PM EDT


 

Airport Tracker/Info


-or-


 

Live Flight TrackerFlight Track Log ✈ FFT919 ✈ 10-Jul-2013 ✈ KTTN - KRDU

Flight Track Log - Related Links

Times and Time Zones

All times are in EDT time to prevent confusion due to time zone crossing. See the FFT919 flight status page for this flight to view local times or setup timezone preferences in your user account.

Time Position Orientation Groundspeed Altitude Reporting Facility
EDT Latitude Longitude Course Direction KTS MPH feet Rate Location/Type
06:51AM 40.2170 -74.8760 209° Southwest 216 249 3,200  Level FlightAware
06:51AM 40.1820 -74.9030 211° Southwest 253 291 4,700 2,760 Climbing FlightAware
06:52AM 40.1530 -74.9240 209° Southwest 257 296 6,200 3,000 Climbing FlightAware
06:52AM 40.1400 -74.9340 210° Southwest 257 296 6,700 1,140 Climbing FlightAware
06:52AM 40.1110 -74.9550 209° Southwest 262 302 7,000 300 Climbing FlightAware
06:53AM 40.0820 -74.9770 210° Southwest 265 305 7,000  Level FlightAware
06:53AM 40.0500 -75.0000 209° Southwest 266 306 7,000  Level FlightAware
06:54AM 40.0380 -75.0090 210° Southwest 265 305 7,000 660 Level FlightAware
06:54AM 40.0130 -75.0280 210° Southwest 270 311 7,400 1,980 Climbing FlightAware
06:54AM 39.9980 -75.0380 207° Southwest 272 313 8,200 3,180 Climbing FlightAware
06:55AM 39.9690 -75.0600 210° Southwest 277 319 9,500 1,860 Climbing FlightAware
06:55AM 39.9320 -75.0870 209° Southwest 318 366 10,000 660 Climbing FlightAware
06:56AM 39.8780 -75.1270 210° Southwest 345 397 10,300 1,320 Climbing FlightAware
06:56AM 39.8270 -75.1640 209° Southwest 349 402 11,700 1,260 Climbing FlightAware
06:57AM 39.7650 -75.2090 209° Southwest 355 409 12,000 180 Climbing FlightAware
06:58AM 39.7070 -75.2510 209° Southwest 356 410 12,000  Level FlightAware
06:59AM 39.6440 -75.2960 209° Southwest 360 414 12,000  Level FlightAware
06:59AM 39.5810 -75.3130 192° South 356 410 12,000 180 Level FlightAware
07:00AM 39.5080 -75.3260 188° South 358 412 12,300 1,440 Climbing FlightAware
07:01AM 39.4410 -75.3390 189° South 373 429 14,000 2,400 Climbing FlightAware
07:01AM 39.3580 -75.3530 187° South 391 450 15,700 1,980 Climbing FlightAware
07:02AM 39.2820 -75.3670 188° South 397 457 16,900 660 Climbing FlightAware
07:03AM 39.1444 -75.3908 188° South 401 461 17,100 1,380 Climbing Washington Center
07:04AM 39.0361 -75.4072 187° South 406 467 20,300 2,520 Climbing Washington Center
07:05AM 38.9256 -75.4236 187° South 406 467 22,100 1,680 Climbing Washington Center
07:06AM 38.8131 -75.4425 187° South 411 473 23,800 1,140 Climbing Washington Center
07:12AM 38.1760 -75.6150 187° South 433 498 30,000 960 Climbing FlightAware
07:13AM 38.1120 -75.6530 205° Southwest 433 498 30,000  Level FlightAware
07:14AM 38.0050 -75.7190 206° Southwest 435 501 30,000  Level FlightAware
07:14AM 37.9460 -75.7540 205° Southwest 435 501 30,000  Level FlightAware
07:16AM 37.7980 -75.8450 206° Southwest 437 503 30,000  Level FlightAware
07:16AM 37.7420 -75.8780 205° Southwest 437 503 30,000  Level FlightAware
07:17AM 37.6650 -75.9230 205° Southwest 437 503 30,000  Level FlightAware
07:18AM 37.6080 -75.9570 205° Southwest 437 503 30,000  Level FlightAware
07:18AM 37.5260 -76.0880 232° Southwest 30,000  Level FlightAware
07:18AM 37.5180 -76.1010 232° Southwest 409 471 30,000  Level FlightAware
07:19AM 37.4600 -76.1890 230° Southwest 405 466 30,000 -180 Level FlightAware
07:20AM 37.4160 -76.2570 231° Southwest 400 460 29,800 -1,320 Descending FlightAware
07:20AM 37.3610 -76.3410 231° Southwest 397 457 28,100 -2,580 Descending FlightAware
07:21AM 37.3190 -76.4060 231° Southwest 405 466 26,200 -2,820 Descending FlightAware
07:22AM 37.2660 -76.4880 231° Southwest 402 463 24,400 -1,980 Descending FlightAware
07:22AM 37.2260 -76.5500 231° Southwest 404 465 23,600 -960 Descending FlightAware
07:23AM 37.1770 -76.6270 231° Southwest 387 445 23,200 -720 Descending FlightAware
07:24AM 37.1330 -76.6960 231° Southwest 380 437 22,600 -960 Descending FlightAware
07:24AM 37.0860 -76.7680 231° Southwest 369 425 21,900 -1,020 Descending FlightAware
07:25AM 37.0400 -76.8400 231° Southwest 371 427 21,200 -1,080 Descending FlightAware
07:26AM 36.9980 -76.9050 231° Southwest 368 423 20,500 -780 Descending FlightAware
07:27AM 36.9510 -76.9770 231° Southwest 367 422 20,100 -300 Descending FlightAware
07:27AM 36.9180 -77.0280 231° Southwest 367 422 20,100  Level FlightAware
07:28AM 36.8750 -77.0950 231° Southwest 367 422 20,100  Level FlightAware
07:29AM 36.8420 -77.1460 231° Southwest 367 422 20,100 -120 Level FlightAware
07:29AM 36.7750 -77.2460 230° Southwest 344 396 20,000 -120 Descending FlightAware
07:30AM 36.7400 -77.3010 232° Southwest 344 396 20,000  Level FlightAware
07:31AM 36.6780 -77.3960 231° Southwest 342 394 20,000  Level FlightAware
07:32AM 36.6480 -77.4430 232° Southwest 342 394 20,000  Level FlightAware
07:33AM 36.6070 -77.5050 231° Southwest 342 394 20,000 -360 Level FlightAware
07:33AM 36.5460 -77.5980 231° Southwest 343 395 19,500 -1,320 Descending FlightAware
07:34AM 36.5020 -77.6650 231° Southwest 348 400 18,100 -1,080 Descending FlightAware
07:35AM 36.4660 -77.7180 230° Southwest 348 400 18,000 -120 Descending FlightAware
07:35AM 36.4350 -77.7650 231° Southwest 348 400 18,000  Level FlightAware
07:36AM 36.4030 -77.8120 230° Southwest 348 400 18,000  Level FlightAware
07:37AM 36.3610 -77.8750 230° Southwest 348 400 18,000 -3,600 Level FlightAware
07:37AM 36.2960 -77.9770 232° Southwest 333 383 12,600 -4,980 Descending FlightAware
07:38AM 36.2660 -78.0230 231° Southwest 328 377 11,800 -1,500 Descending FlightAware
07:39AM 36.2230 -78.0870 230° Southwest 321 369 10,700 -1,320 Descending FlightAware
07:39AM 36.1880 -78.1400 231° Southwest 303 349 10,000 -1,080 Descending FlightAware
07:40AM 36.1640 -78.1810 234° Southwest 287 330 9,500 -1,380 Descending FlightAware
07:40AM 36.1460 -78.2170 238° Southwest 289 333 8,700 -1,680 Descending FlightAware
07:41AM 36.1270 -78.2580 240° Southwest 284 327 8,000 -1,500 Descending FlightAware
07:41AM 36.1120 -78.3020 247° West 275 316 7,300 -1,500 Descending FlightAware
07:42AM 36.1010 -78.3390 250° West 273 314 6,600 -1,440 Descending FlightAware
07:42AM 36.0890 -78.3830 251° West 265 305 6,000 -900 Descending FlightAware
07:43AM 36.0780 -78.4210 250° West 241 277 5,800 -360 Descending FlightAware
07:43AM 36.0700 -78.4530 253° West 239 275 5,700 -840 Descending FlightAware
07:43AM 36.0600 -78.4900 252° West 240 276 5,100 -1,440 Descending FlightAware
07:44AM 36.0510 -78.5250 252° West 237 273 4,400 -1,440 Descending FlightAware
07:44AM 36.0410 -78.5610 251° West 235 270 3,800 -780 Descending FlightAware
07:47AM 35.9500 -78.7090 233° Southwest 174 200 1,700 -720 Descending FlightAware
07:48AM 35.9440 -78.7160 223° Southwest 169 194 1,600 -720 Descending FlightAware
07:49AM 35.9011 -78.7692 223° Southwest 116 133 700 -660 Descending Washington Center
07:51AM 35.8776 -78.7875 North  Level Estimated